Shaw Air Force Base
KSSC : now visible

Airfield :











YOU CAN JOIN US ON...

 
LOGIN :

Register | Disclaimer

   EN    FR    IT 

 









Legend :    VFR   Marginal VFR   IFR   Intensive IFR   Very Intensive IFR
Visi :
Ceiling :
>= 8 km
>= 3000ft
5 to 8 km
1000 to 3000 ft
1500m to 5 km
500 to 1000 ft
800 to 1500m
200 to 500 ft
< 800m
< 200 ft
Symbols :   Thunderstorms  Fog  Heavy snow  Heavy precipitations  Wind > 20 kt






- Airport Elevation : 241 ft


KSSC - Shaw Air Force Base

CURRENT METAR :
  • 120156Z AUTO 03006KT 10SM CLR 04/M01 A3050 RMK AO2 SLPNO T00411007 $

EXPIRED METARs :
  • 120056Z AUTO 04005KT 10SM CLR 05/01 A3050 RMK AO2 SLPNO T00450006 $
  • 112356Z AUTO 04005KT 10SM CLR 05/00 A3049 RMK AO2 SLPNO 60000 T00530003 10103 20053 52019 $

TAF TAF KSSC
Valid from the 12 at 00:00 until the 13 at 06:00 UTC


120000Z 1200/1306 03006KT 9999 SKC QNH3046INS
BECMG 1213/1214 07012G18KT 9999 SKC QNH3042INS
BECMG 1223/1224 04009KT 9999 BKN025 OVC070 QNH3039INS
BECMG 1304/1305 04009KT 9999 OVC008 QNH3031INS TX09/1220Z TN01/1212Z



MET'MAP, your aeronautical weather chart ! - Copyright ORBIFLY December 2007 - Disclaimer

ORBIFLY MET'MAP TEAM :

Programming & Development : Alexandra Zaïnal
Concept & original design : Baudouin d'Aumeries
Assistance for programming : Marc-Olivier Méhu
Technical & hardware support : Manuel Goepfert

Contact : metmap@orbifly.com




SOURCES & CREDITS :

   NOAA       Earth
Advisory